createdAt,value
2023-02-18T00:03:35.608Z,97.09
2023-02-18T00:08:38.607Z,97.10
2023-02-18T00:13:43.287Z,97.35
2023-02-18T00:18:46.229Z,97.20
2023-02-18T00:23:49.131Z,96.79
2023-02-18T00:28:54.377Z,96.91
2023-02-18T00:33:58.760Z,95.78
2023-02-18T00:39:08.271Z,95.63
2023-02-18T00:44:13.888Z,95.29
2023-02-18T00:49:17.799Z,93.91
2023-02-18T00:54:20.703Z,93.51
2023-02-18T00:59:24.981Z,91.62
2023-02-18T01:04:27.934Z,90.23
2023-02-18T01:09:31.362Z,90.09
2023-02-18T01:14:35.595Z,88.28
2023-02-18T01:19:38.484Z,88.40
2023-02-18T01:24:41.879Z,86.43
2023-02-18T01:29:46.212Z,84.61
2023-02-18T01:34:49.153Z,83.63
2023-02-18T01:39:52.039Z,83.39
2023-02-18T01:45:16.423Z,82.95
2023-02-18T01:50:19.472Z,82.67
2023-02-18T01:55:24.822Z,82.93
2023-02-18T02:00:29.383Z,82.67
2023-02-18T02:05:34.354Z,82.89
2023-02-18T02:10:48.861Z,83.21
2023-02-18T02:15:59.982Z,83.35
2023-02-18T02:21:40.512Z,83.35
2023-02-18T02:27:16.230Z,84.30
2023-02-18T02:32:58.633Z,83.62
2023-02-18T02:38:07.577Z,83.98
2023-02-18T02:43:19.305Z,83.94
2023-02-18T02:48:29.647Z,84.12
2023-02-18T02:53:36.557Z,84.25
2023-02-18T02:58:39.461Z,84.10
2023-02-18T03:04:20.666Z,83.26
2023-02-18T03:09:41.107Z,83.84
2023-02-18T03:14:54.634Z,83.81
2023-02-18T03:20:04.247Z,84.43
2023-02-18T03:25:12.284Z,83.84
2023-02-18T03:30:21.123Z,83.11
2023-02-18T03:35:25.286Z,83.97
2023-02-18T03:40:30.546Z,84.22
2023-02-18T03:45:34.605Z,84.04
2023-02-18T03:50:37.629Z,84.47
2023-02-18T03:55:42.645Z,84.75
2023-02-18T04:00:45.623Z,86.25
2023-02-18T04:05:48.891Z,86.54
2023-02-18T04:10:53.176Z,87.08
2023-02-18T04:15:56.262Z,85.87
2023-02-18T04:20:59.187Z,85.75
2023-02-18T04:26:03.466Z,85.02
2023-02-18T04:31:06.465Z,84.20
2023-02-18T04:36:10.576Z,83.09
2023-02-18T04:41:14.927Z,83.84
2023-02-18T04:46:17.905Z,82.58
2023-02-18T04:51:21.304Z,83.04
2023-02-18T04:56:25.597Z,83.87
2023-02-18T05:01:28.595Z,84.55
2023-02-18T05:06:31.630Z,84.53
2023-02-18T05:11:35.902Z,84.07
2023-02-18T05:16:38.791Z,83.95
2023-02-18T05:21:41.799Z,84.32
2023-02-18T05:26:46.554Z,85.39
2023-02-18T05:31:49.561Z,87.62
2023-02-18T05:36:53.153Z,89.54
2023-02-18T05:41:57.392Z,90.20
2023-02-18T05:47:01.723Z,91.94
2023-02-18T05:52:05.274Z,93.05
2023-02-18T05:57:09.509Z,93.44
2023-02-18T06:02:12.504Z,93.54
2023-02-18T06:07:15.396Z,93.63
2023-02-18T06:12:19.657Z,92.80
2023-02-18T06:17:22.747Z,94.46
2023-02-18T06:22:25.800Z,97.30
2023-02-18T06:27:30.090Z,100.00
2023-02-18T06:32:32.998Z,99.35
2023-02-18T06:37:35.894Z,100.00
2023-02-18T06:42:40.287Z,100.00
2023-02-18T06:47:43.246Z,100.00
2023-02-18T06:52:46.143Z,100.00
2023-02-18T06:57:50.457Z,100.00
2023-02-18T07:02:53.342Z,100.00
2023-02-18T07:07:57.297Z,100.00
2023-02-18T07:13:01.612Z,100.00
2023-02-18T07:18:04.767Z,100.00
2023-02-18T07:23:07.787Z,100.00
2023-02-18T07:28:12.047Z,100.00
2023-02-18T07:33:15.143Z,100.00
2023-02-18T07:38:18.069Z,100.00
2023-02-18T07:43:22.765Z,100.00
2023-02-18T07:48:25.684Z,100.00
2023-02-18T07:53:28.591Z,100.00
2023-02-18T07:58:35.549Z,100.00
2023-02-18T08:03:39.011Z,100.00
2023-02-18T08:08:41.873Z,100.00
2023-02-18T08:13:47.217Z,100.00
2023-02-18T08:18:50.724Z,100.00
2023-02-18T08:23:54.529Z,100.00
2023-02-18T08:28:58.816Z,100.00
2023-02-18T08:34:03.616Z,100.00
2023-02-18T08:39:06.561Z,100.00
2023-02-18T08:44:10.864Z,100.00
2023-02-18T08:49:13.823Z,99.79
2023-02-18T08:54:16.781Z,100.00
2023-02-18T08:59:21.086Z,100.00
2023-02-18T09:04:24.056Z,97.68
2023-02-18T09:09:26.978Z,94.89
2023-02-18T09:14:31.334Z,93.64
2023-02-18T09:19:34.240Z,91.92
2023-02-18T09:24:39.126Z,92.09
2023-02-18T09:29:44.352Z,90.24
2023-02-18T09:34:47.335Z,90.15
2023-02-18T09:39:50.442Z,89.35
2023-02-18T09:44:59.001Z,90.01
2023-02-18T09:50:07.837Z,90.95
2023-02-18T09:55:20.795Z,92.71
2023-02-18T10:00:31.810Z,92.53
2023-02-18T10:05:37.325Z,92.92
2023-02-18T10:10:43.214Z,93.66
2023-02-18T10:15:48.404Z,94.61
2023-02-18T10:20:53.376Z,95.17
2023-02-18T10:25:57.731Z,94.83
2023-02-18T10:31:08.518Z,95.25
2023-02-18T10:36:25.243Z,96.11
2023-02-18T10:41:39.127Z,96.29
2023-02-18T10:46:51.894Z,96.11
2023-02-18T10:51:58.989Z,95.24
2023-02-18T10:57:04.736Z,95.19
2023-02-18T11:02:18.623Z,94.69
2023-02-18T11:07:25.174Z,93.64
2023-02-18T11:12:31.424Z,92.79
2023-02-18T11:17:37.879Z,91.25
2023-02-18T11:22:41.557Z,89.94
2023-02-18T11:27:47.904Z,88.05
2023-02-18T11:32:56.818Z,87.81
2023-02-18T11:38:01.580Z,86.67
2023-02-18T11:43:07.421Z,86.14
2023-02-18T11:48:18.627Z,86.25
2023-02-18T11:53:29.550Z,86.42
2023-02-18T11:58:39.730Z,87.49
2023-02-18T12:03:49.472Z,88.22
2023-02-18T12:08:55.882Z,89.60
2023-02-18T12:14:00.020Z,89.62
2023-02-18T12:19:28.626Z,89.22
2023-02-18T12:24:53.894Z,88.75
2023-02-18T12:30:19.616Z,87.78
2023-02-18T12:35:42.101Z,87.35
2023-02-18T12:41:01.727Z,86.85
2023-02-18T12:46:28.826Z,87.41
2023-02-18T12:51:45.631Z,88.68
2023-02-18T12:57:10.399Z,90.83
2023-02-18T13:02:35.985Z,91.35
2023-02-18T13:08:12.197Z,89.18
2023-02-18T13:13:19.596Z,88.87
2023-02-18T13:18:27.709Z,86.47
2023-02-18T13:23:36.847Z,84.39
2023-02-18T13:28:45.094Z,83.81
2023-02-18T13:33:55.101Z,82.89
2023-02-18T13:39:08.397Z,82.62
2023-02-18T13:44:40.996Z,84.84
2023-02-18T13:49:44.019Z,84.24
2023-02-18T13:54:51.759Z,84.11
2023-02-18T13:59:59.784Z,84.18
2023-02-18T14:05:21.430Z,84.29
2023-02-18T14:10:35.751Z,83.36
2023-02-18T14:16:02.110Z,82.37
2023-02-18T14:21:19.304Z,83.08
2023-02-18T14:26:31.191Z,84.51
2023-02-18T14:31:55.412Z,83.67
2023-02-18T14:37:11.648Z,83.85
2023-02-18T14:42:25.810Z,83.40
2023-02-18T14:47:38.228Z,83.99
2023-02-18T14:52:46.561Z,84.39
2023-02-18T14:57:55.224Z,84.11
2023-02-18T15:02:58.180Z,85.84
2023-02-18T15:08:04.033Z,88.77
2023-02-18T15:13:15.004Z,89.03
2023-02-18T15:18:24.189Z,88.26
2023-02-18T15:23:27.136Z,87.69
2023-02-18T15:28:34.355Z,88.07
2023-02-18T15:33:37.387Z,85.87
2023-02-18T15:38:42.938Z,85.17
2023-02-18T15:43:55.912Z,84.31
2023-02-18T15:48:59.592Z,82.88
2023-02-18T15:54:05.806Z,82.32
2023-02-18T15:59:17.128Z,81.70
2023-02-18T16:04:22.032Z,81.65
2023-02-18T16:09:27.380Z,82.78
2023-02-18T16:14:36.101Z,81.90
2023-02-18T16:20:02.811Z,81.90
2023-02-18T16:25:17.549Z,82.16
2023-02-18T16:30:24.317Z,81.90
2023-02-18T16:35:32.691Z,82.58
2023-02-18T16:40:41.444Z,82.47
2023-02-18T16:45:49.868Z,83.03
2023-02-18T16:50:53.560Z,82.94
2023-02-18T16:55:56.983Z,82.29
2023-02-18T17:01:01.940Z,81.99
2023-02-18T17:06:05.379Z,82.08
2023-02-18T17:11:16.357Z,82.29
2023-02-18T17:16:21.227Z,83.13
2023-02-18T17:21:26.413Z,84.16
2023-02-18T17:26:30.777Z,85.65
2023-02-18T17:31:37.641Z,86.78
2023-02-18T17:36:45.313Z,87.10
2023-02-18T17:41:48.598Z,86.85
2023-02-18T17:46:54.872Z,86.95
2023-02-18T17:51:58.190Z,85.95
2023-02-18T17:57:01.231Z,86.13
2023-02-18T18:02:11.756Z,85.98
2023-02-18T18:07:14.942Z,86.21
2023-02-18T18:12:18.334Z,85.49
2023-02-18T18:17:22.660Z,83.92
2023-02-18T18:22:25.607Z,83.78
2023-02-18T18:27:28.584Z,84.08
2023-02-18T18:32:32.998Z,85.97
2023-02-18T18:37:36.001Z,87.47
2023-02-18T18:42:39.951Z,88.29
2023-02-18T18:47:44.545Z,88.54
2023-02-18T18:52:48.971Z,87.88
2023-02-18T18:57:51.968Z,87.28
2023-02-18T19:02:56.648Z,86.75
2023-02-18T19:08:00.121Z,86.52
2023-02-18T19:13:03.927Z,86.20
2023-02-18T19:18:08.979Z,86.52
2023-02-18T19:23:13.235Z,86.10
2023-02-18T19:28:16.291Z,86.67
2023-02-18T19:33:20.613Z,86.48
2023-02-18T19:38:23.564Z,87.00
2023-02-18T19:43:26.461Z,87.91
2023-02-18T19:48:30.781Z,88.24
2023-02-18T19:53:33.856Z,88.93
2023-02-18T19:58:37.403Z,89.50
2023-02-18T20:03:41.725Z,89.91
2023-02-18T20:08:44.709Z,89.97
2023-02-18T20:13:49.313Z,90.30
2023-02-18T20:18:53.990Z,89.95
2023-02-18T20:23:56.926Z,89.36
2023-02-18T20:29:00.117Z,89.65
2023-02-18T20:34:04.405Z,90.21
2023-02-18T20:39:15.644Z,90.50
2023-02-18T20:44:20.937Z,90.81
2023-02-18T20:49:25.373Z,89.78
2023-02-18T20:54:29.346Z,89.29
2023-02-18T20:59:33.388Z,89.85
2023-02-18T21:04:37.792Z,89.67
2023-02-18T21:09:40.954Z,89.17
2023-02-18T21:14:44.034Z,89.09
2023-02-18T21:19:48.335Z,89.85
2023-02-18T21:24:51.797Z,90.18
2023-02-18T21:29:55.047Z,90.63
2023-02-18T21:34:59.322Z,90.66
2023-02-18T21:40:02.254Z,90.74
2023-02-18T21:45:05.603Z,90.89
2023-02-18T21:50:10.810Z,91.61
2023-02-18T21:55:14.103Z,91.99
2023-02-18T22:00:20.964Z,91.02
2023-02-18T22:05:26.124Z,91.01
2023-02-18T22:10:29.061Z,90.79
2023-02-18T22:15:31.975Z,90.01
2023-02-18T22:20:36.231Z,89.34
2023-02-18T22:25:39.125Z,89.18
2023-02-18T22:30:42.111Z,91.03
2023-02-18T22:35:46.431Z,91.77
2023-02-18T22:40:50.926Z,91.93
2023-02-18T22:45:53.873Z,91.72
2023-02-18T22:50:58.186Z,92.30
2023-02-18T22:56:02.453Z,91.62
2023-02-18T23:01:07.016Z,91.77
2023-02-18T23:06:12.492Z,91.87
2023-02-18T23:11:18.864Z,91.10
2023-02-18T23:16:22.608Z,91.12
2023-02-18T23:21:26.859Z,90.54
2023-02-18T23:26:29.768Z,90.21
2023-02-18T23:31:37.705Z,90.06
2023-02-18T23:36:42.941Z,90.39
2023-02-18T23:41:46.662Z,89.98
2023-02-18T23:46:49.786Z,89.74
2023-02-18T23:51:55.688Z,89.48
2023-02-18T23:56:58.538Z,89.62
